Proactive disclosure of contracts over $10,000

N.B.: The contract date represents the date that the contract is recorded in the departmental financial system.

2007-2008 - 1st quarter

Date Vendor name Description Value
2007-04-01Contract 7004735: C.B.-Z. INC.499 - Other professio...24 867,60 $
2007-04-02Contract 9F01562310: IMPRIMERIE STE-JULIE INC.321 - Printing servic...17 521,96 $
2007-04-02Contract 7004656: GROUPE LGS INC472 - Information tec...41 552,00 $
2007-04-03Contract 7004663: LANSDOWNE TECHNOLOGIES INC.491 - Management cons...26 576,32 $
2007-04-03Contract 7004662: NDV PROJECT MANAGEMENT SERVICES INC491 - Management cons...53 000,00 $
2007-04-04Contract 7004672: MDA GEOSPATIAL SERVICES INC.431 - Scientific cons...25 000,00 $
2007-04-05Contract 7004677: MARC-ANDRE ASSINIWI491 - Management cons...23 896,40 $
2007-04-11Contract 7004697: MDA GEOSPATIAL SERVICES INC.1143 - Printed matter,...99 057,00 $
2007-04-11Contract 7004698: ATHENA GLOBAL INC491 - Management cons...12 826,00 $
2007-04-11Contract 7004695: ORACOM ITS CANADA INC472 - Information tec...50 880,00 $
2007-04-11Contract 7004694: ORACOM ITS CANADA INC472 - Information tec...25 440,00 $
2007-04-11Contract 7004700: RANDSTAD CANADA813 - Temporary help ...12 549,08 $
2007-04-11Contract 7004693: CIMAISE ARCHITECTES421 - Architectural s...10 027,60 $
2007-04-12Contract 7004703: UNIVERSITE LAVAL431 - Scientific cons...13 367,64 $
2007-04-13Contract 7004708: MACDONALD DETTWILER AND431 - Scientific cons...424 000,00 $
2007-04-13Contract 9F30612M23: GE SECURITE665 - Other equipment...21 200,00 $
2007-04-16Contract 7004715: ATHENA GLOBAL INC431 - Scientific cons...24 814,60 $
2007-04-16Contract 7004717: RH S.POULIN CONSULTATING499 - Other professio...23 516,10 $
2007-04-17Contract 7004722: MDA GEOSPATIAL SERVICES INC.1143 - Printed matter,...42 400,00 $
2007-04-17Contract 7004707: MACDONALD DETTWILER AND431 - Scientific cons...424 000,00 $

Number of contracts: 94

N.B.: The contract date represents the date that the contract is recorded in the departmental financial system.

Change the Quarter